Time;durP1;ratioP1;P1;durP2;ratioP2;P2;SDS_P1;SDS_P2;PMS_P1;PMS_P2;Temp;Humidity;BMP_temperature;BMP_pressure;BME280_temperature;BME280_humidity;BME280_pressure;Samples;Min_cycle;Max_cycle;Signal;HPM_P1;HPM_P2
2021/03/08 00:00:33;;;;;;;7.88;1.92;;;25.50;99.90;;;;;;6316924;22;19995;-63
2021/03/08 00:03:01;;;;;;;9.70;2.15;;;25.50;99.90;;;;;;6318072;22;19995;-63
2021/03/08 00:05:29;;;;;;;6.65;1.90;;;25.70;99.90;;;;;;6318648;22;20182;-64
2021/03/08 00:07:56;;;;;;;10.55;1.80;;;25.80;99.90;;;;;;6336857;22;20011;-64
2021/03/08 00:10:23;;;;;;;7.80;2.05;;;26.00;99.90;;;;;;6313081;22;20056;-63
2021/03/08 00:12:51;;;;;;;12.10;2.72;;;26.20;99.90;;;;;;6316416;22;19999;-64
2021/03/08 00:15:20;;;;;;;10.05;2.15;;;26.30;99.90;;;;;;6337250;22;20015;-63
2021/03/08 00:17:48;;;;;;;8.75;2.13;;;26.60;99.90;;;;;;6313980;22;20014;-63
2021/03/08 00:20:18;;;;;;;7.40;2.17;;;26.80;99.90;;;;;;6312041;22;20434;-63
2021/03/08 00:22:46;;;;;;;46.33;17.70;;;27.00;99.90;;;;;;6315483;22;20019;-64
2021/03/08 00:25:20;;;;;;;8.20;2.20;;;27.00;99.90;;;;;;6317746;22;19995;-64
2021/03/08 00:27:46;;;;;;;;;;;27.20;99.90;;;;;;6320629;22;20091;-64
2021/03/08 00:30:15;;;;;;;6.65;1.65;;;27.20;99.90;;;;;;6309679;22;19907;-64
2021/03/08 00:32:43;;;;;;;7.18;1.90;;;27.40;99.90;;;;;;6309916;22;20003;-64
2021/03/08 00:35:13;;;;;;;6.75;1.73;;;27.80;99.90;;;;;;6309352;22;20006;-64
2021/03/08 00:37:40;;;;;;;5.65;1.88;;;28.40;99.90;;;;;;6313487;22;20016;-64
2021/03/08 00:40:14;;;;;;;14.98;1.90;;;28.70;99.90;;;;;;6306473;22;19999;-64
2021/03/08 00:42:41;;;;;;;;;;;28.70;99.90;;;;;;6306649;22;19999;-64
2021/03/08 00:45:10;;;;;;;6.18;1.85;;;28.70;99.90;;;;;;6308179;22;20313;-64
2021/03/08 00:47:38;;;;;;;8.02;2.33;;;28.80;99.90;;;;;;6308431;22;20007;-64
2021/03/08 00:50:08;;;;;;;8.02;1.80;;;28.80;99.90;;;;;;6306237;22;20003;-64
2021/03/08 00:52:35;;;;;;;4.65;2.05;;;28.50;99.90;;;;;;6307996;22;20013;-64
2021/03/08 00:55:03;;;;;;;9.80;1.88;;;28.50;99.90;;;;;;6332209;22;20124;-64
2021/03/08 00:57:31;;;;;;;5.78;1.50;;;28.60;99.90;;;;;;6309057;22;20019;-64
2021/03/08 00:59:58;;;;;;;7.20;1.77;;;28.80;99.90;;;;;;6307443;22;20000;-64
2021/03/08 01:02:25;;;;;;;6.40;1.15;;;29.10;99.90;;;;;;6307355;22;20010;-64
2021/03/08 01:04:52;;;;;;;9.95;1.52;;;29.30;99.90;;;;;;6305069;22;20018;-64
2021/03/08 01:07:20;;;;;;;4.20;1.25;;;29.10;99.90;;;;;;6306592;22;20003;-64
2021/03/08 01:09:47;;;;;;;12.30;2.03;;;28.80;99.90;;;;;;6306914;22;20035;-66
2021/03/08 01:12:14;;;;;;;4.95;1.42;;;28.90;99.90;;;;;;6335509;22;20007;-64
2021/03/08 01:14:42;;;;;;;7.20;1.45;;;28.80;99.90;;;;;;6316698;22;19999;-64
2021/03/08 01:17:09;;;;;;;3.40;1.10;;;28.80;99.90;;;;;;6319828;22;19995;-65
2021/03/08 01:19:36;;;;;;;3.50;1.33;;;29.00;99.90;;;;;;6317609;22;20014;-64
2021/03/08 01:22:04;;;;;;;6.90;1.48;;;29.40;99.90;;;;;;6317792;22;20030;-64
2021/03/08 01:24:31;;;;;;;6.20;1.45;;;29.70;99.90;;;;;;6346757;22;20034;-64
2021/03/08 01:26:58;;;;;;;7.22;1.33;;;29.70;99.70;;;;;;6321756;22;20003;-63
2021/03/08 01:29:26;;;;;;;4.80;1.17;;;29.60;99.70;;;;;;6322691;22;20010;-64
2021/03/08 01:31:53;;;;;;;8.35;1.55;;;29.60;99.60;;;;;;6316058;22;20009;-64
2021/03/08 01:34:20;;;;;;;7.35;1.33;;;30.00;99.30;;;;;;6354242;22;19999;-64
2021/03/08 01:36:48;;;;;;;9.02;2.03;;;30.10;99.30;;;;;;6326070;22;19996;-64
2021/03/08 01:39:15;;;;;;;5.40;1.50;;;30.20;99.00;;;;;;6320215;22;20049;-65
2021/03/08 01:41:42;;;;;;;6.18;1.58;;;30.10;99.30;;;;;;6326199;22;20006;-63
2021/03/08 01:44:09;;;;;;;5.90;1.02;;;30.50;98.40;;;;;;6330325;22;20060;-63
2021/03/08 01:46:37;;;;;;;8.30;1.90;;;30.10;98.70;;;;;;6327125;22;20038;-64
2021/03/08 01:49:05;;;;;;;9.32;1.92;;;30.10;98.90;;;;;;6351325;22;20003;-64
2021/03/08 01:51:32;;;;;;;6.38;2.03;;;30.20;98.90;;;;;;6315511;22;20038;-65
2021/03/08 01:54:00;;;;;;;6.13;1.88;;;30.60;98.50;;;;;;6310910;22;19999;-65
2021/03/08 01:56:28;;;;;;;5.88;1.58;;;30.80;98.10;;;;;;6315232;22;20066;-66
2021/03/08 01:58:56;;;;;;;4.90;1.48;;;30.80;98.10;;;;;;6315101;22;20022;-64
2021/03/08 02:01:23;;;;;;;6.78;1.35;;;30.50;97.90;;;;;;6310672;22;20051;-64
2021/03/08 02:03:50;;;;;;;6.03;1.50;;;30.10;98.40;;;;;;6311292;22;20482;-65
2021/03/08 02:06:17;;;;;;;8.77;1.95;;;29.90;98.50;;;;;;6311448;22;20056;-64
2021/03/08 02:08:45;;;;;;;5.55;1.63;;;29.90;98.20;;;;;;6310625;22;20014;-65
2021/03/08 02:11:12;;;;;;;4.38;1.25;;;30.10;98.20;;;;;;6338723;22;19999;-64
2021/03/08 02:13:53;;;;;;;4.07;1.63;;;30.20;97.70;;;;;;6312269;22;20007;-65
2021/03/08 02:16:32;;;;;;;5.55;1.15;;;30.30;98.00;;;;;;6312777;22;19995;-65
2021/03/08 02:19:02;;;;;;;9.73;1.70;;;30.20;98.20;;;;;;6308729;22;19999;-65
2021/03/08 02:21:51;;;;;;;6.22;1.45;;;30.10;98.10;;;;;;6310765;22;20003;-64
2021/03/08 02:24:27;;;;;;;10.77;1.63;;;29.90;97.90;;;;;;6310917;22;20003;-65
2021/03/08 02:27:26;;;;;;;6.13;1.48;;;29.70;97.80;;;;;;6317796;22;20390;-65
2021/03/08 02:30:09;;;;;;;8.27;1.75;;;30.00;97.80;;;;;;6302811;22;20004;-64
2021/03/08 02:32:45;;;;;;;5.00;1.20;;;30.20;97.80;;;;;;6317640;22;20372;-65
2021/03/08 02:35:20;;;;;;;3.88;1.33;;;30.30;97.30;;;;;;6312751;22;20437;-65
2021/03/08 02:38:01;;;;;;;5.43;1.60;;;30.10;97.30;;;;;;6311239;22;20006;-66
2021/03/08 02:40:36;;;;;;;10.48;1.70;;;30.10;97.60;;;;;;6309030;22;20015;-66
2021/03/08 02:43:09;;;;;;;10.10;1.67;;;30.80;97.10;;;;;;6307820;22;19999;-65
2021/03/08 02:45:36;;;;;;;3.78;1.27;;;31.30;99.60;;;;;;6309579;22;20003;-65
2021/03/08 02:48:05;;;;;;;8.70;2.25;;;31.50;95.40;;;;;;6306442;22;20034;-66
2021/03/08 02:50:37;;;;;;;6.18;1.35;;;31.50;95.50;;;;;;6308556;22;20333;-66
2021/03/08 02:53:11;;;;;;;6.07;1.60;;;31.20;95.20;;;;;;6307516;22;20459;-65
2021/03/08 02:55:47;;;;;;;6.38;1.48;;;30.70;95.10;;;;;;6306839;22;19999;-65
2021/03/08 02:58:16;;;;;;;5.47;1.38;;;30.30;95.70;;;;;;6306060;22;20291;-65
2021/03/08 03:00:45;;;;;;;6.85;1.90;;;30.30;95.70;;;;;;6307288;22;20014;-65
2021/03/08 03:03:14;;;;;;;5.35;1.25;;;30.30;95.80;;;;;;6306718;22;20080;-65
2021/03/08 03:05:42;;;;;;;6.32;1.40;;;30.10;96.00;;;;;;6307313;22;19999;-65
2021/03/08 03:08:11;;;;;;;7.50;2.38;;;30.10;95.90;;;;;;6307468;22;20045;-65
2021/03/08 03:10:40;;;;;;;6.78;1.95;;;30.10;96.10;;;;;;6307417;22;20022;-65
2021/03/08 03:13:08;;;;;;;5.07;1.50;;;30.10;96.70;;;;;;6307524;22;20105;-65
2021/03/08 03:15:39;;;;;;;9.15;2.35;;;30.00;96.40;;;;;;6307244;22;20015;-65
2021/03/08 03:18:09;;;;;;;5.80;1.27;;;30.00;95.80;;;;;;6308706;22;20417;-65
2021/03/08 03:20:38;;;;;;;3.72;1.60;;;29.80;96.00;;;;;;6307364;22;20360;-65
2021/03/08 03:23:07;;;;;;;8.82;1.65;;;29.80;95.60;;;;;;6305711;22;20367;-65
2021/03/08 03:25:35;;;;;;;4.68;1.38;;;29.60;95.80;;;;;;6307411;22;20010;-65
2021/03/08 03:28:02;;;;;;;8.07;1.63;;;29.60;95.70;;;;;;6308515;22;20019;-65
2021/03/08 03:30:32;;;;;;;6.43;1.33;;;29.60;95.90;;;;;;6307091;22;20074;-65
2021/03/08 03:32:59;;;;;;;6.28;2.40;;;29.60;96.20;;;;;;6331841;22;20405;-66
2021/03/08 03:35:28;;;;;;;10.23;1.63;;;29.50;95.80;;;;;;6306055;22;20006;-65
2021/03/08 03:37:57;;;;;;;11.90;2.20;;;29.40;96.10;;;;;;6308064;22;20013;-65
2021/03/08 03:40:27;;;;;;;6.13;1.60;;;29.30;96.20;;;;;;6306538;22;20020;-65
2021/03/08 03:42:54;;;;;;;9.13;2.33;;;29.20;96.30;;;;;;6308692;22;20006;-65
2021/03/08 03:45:24;;;;;;;11.38;2.03;;;29.20;96.70;;;;;;6332564;22;20323;-65
2021/03/08 03:47:52;;;;;;;5.88;2.10;;;29.20;96.60;;;;;;6308839;22;20006;-65
2021/03/08 03:50:22;;;;;;;11.30;1.50;;;29.10;96.10;;;;;;6307830;22;20007;-65
2021/03/08 03:52:50;;;;;;;8.85;1.77;;;29.10;96.10;;;;;;6308188;22;20456;-65
2021/03/08 03:55:20;;;;;;;7.07;2.33;;;29.10;96.70;;;;;;6306109;22;20007;-65
2021/03/08 03:58:11;;;;;;;6.93;1.70;;;29.00;96.60;;;;;;6307927;22;20057;-65
2021/03/08 04:00:55;;;;;;;12.20;2.15;;;29.00;96.70;;;;;;6306970;22;19999;-66
2021/03/08 04:03:28;;;;;;;5.50;1.70;;;29.00;96.90;;;;;;6307041;22;20052;-65
2021/03/08 04:05:58;;;;;;;6.15;1.23;;;29.10;96.80;;;;;;6309412;22;20074;-65
2021/03/08 04:08:27;;;;;;;8.15;1.20;;;29.00;97.00;;;;;;6309724;22;20010;-65
2021/03/08 04:10:57;;;;;;;6.63;1.30;;;28.90;97.90;;;;;;6311130;22;20006;-66
2021/03/08 04:13:35;;;;;;;7.78;1.77;;;28.80;98.10;;;;;;6309821;22;20009;-65
2021/03/08 04:16:04;;;;;;;6.05;1.98;;;28.70;98.60;;;;;;6334340;22;20506;-65
2021/03/08 04:18:32;;;;;;;5.18;1.77;;;28.70;98.90;;;;;;6306884;22;20045;-65
2021/03/08 04:21:01;;;;;;;5.13;1.23;;;28.70;98.30;;;;;;6309170;22;20007;-66
2021/03/08 04:23:29;;;;;;;6.88;1.60;;;28.80;98.20;;;;;;6309027;22;20027;-66
2021/03/08 04:25:57;;;;;;;4.80;1.20;;;29.00;98.40;;;;;;6335970;22;20023;-66
2021/03/08 04:28:25;;;;;;;4.45;1.20;;;29.10;98.30;;;;;;6310320;22;19999;-66
2021/03/08 04:30:52;;;;;;;6.22;2.03;;;29.30;98.00;;;;;;6312110;22;20010;-66
2021/03/08 04:33:20;;;;;;;3.38;1.10;;;29.40;97.90;;;;;;6311736;22;20023;-66
2021/03/08 04:35:48;;;;;;;3.85;1.60;;;29.30;97.70;;;;;;6311851;22;20075;-65
2021/03/08 04:38:16;;;;;;;6.43;1.80;;;29.40;97.40;;;;;;6311453;22;20003;-66
2021/03/08 04:40:44;;;;;;;6.18;1.17;;;29.50;98.20;;;;;;6309822;22;19999;-66
2021/03/08 04:43:12;;;;;;;6.13;1.65;;;29.50;98.70;;;;;;6311725;22;20365;-66
2021/03/08 04:45:40;;;;;;;4.38;1.10;;;29.40;97.50;;;;;;6335795;22;20060;-65
2021/03/08 04:48:08;;;;;;;5.75;1.48;;;29.40;97.90;;;;;;6313174;22;20286;-65
2021/03/08 04:50:36;;;;;;;4.22;1.70;;;29.20;98.10;;;;;;6310837;22;20007;-66
2021/03/08 04:53:04;;;;;;;7.95;1.40;;;29.10;98.50;;;;;;6335976;22;20076;-66
2021/03/08 04:55:33;;;;;;;4.78;2.08;;;28.90;98.60;;;;;;6311008;22;20060;-66
2021/03/08 04:58:00;;;;;;;5.40;1.30;;;28.80;98.70;;;;;;6310965;22;19995;-66
2021/03/08 05:00:28;;;;;;;6.22;1.58;;;28.70;98.40;;;;;;6310332;22;20030;-66
2021/03/08 05:02:56;;;;;;;7.63;1.77;;;28.50;99.20;;;;;;6311734;22;20000;-67
2021/03/08 05:05:26;;;;;;;7.60;1.55;;;28.50;99.50;;;;;;6308983;22;20064;-67
2021/03/08 05:08:06;;;;;;;5.00;1.50;;;28.40;99.90;;;;;;6334989;22;20029;-66
2021/03/08 05:10:38;;;;;;;4.80;1.20;;;28.40;99.90;;;;;;6307762;22;20003;-65
2021/03/08 05:13:10;;;;;;;6.22;1.40;;;28.30;99.90;;;;;;6308817;22;19999;-66
2021/03/08 05:15:37;;;;;;;5.22;1.75;;;28.20;99.90;;;;;;6310424;22;20024;-66
2021/03/08 05:18:06;;;;;;;3.92;1.30;;;28.20;99.90;;;;;;6311345;22;19999;-66
2021/03/08 05:20:35;;;;;;;6.95;1.92;;;28.10;99.90;;;;;;6309674;22;20027;-66
2021/03/08 05:23:04;;;;;;;4.93;1.50;;;28.00;99.90;;;;;;6310559;22;19995;-66
2021/03/08 05:25:34;;;;;;;8.73;2.10;;;28.00;99.90;;;;;;6310906;22;19999;-66
2021/03/08 05:28:03;;;;;;;3.65;1.48;;;27.90;99.90;;;;;;6310984;22;20003;-66
2021/03/08 05:30:31;;;;;;;8.43;1.75;;;27.90;99.90;;;;;;6311527;22;20398;-65
2021/03/08 05:33:22;;;;;;;5.90;1.73;;;27.80;99.90;;;;;;6335773;22;20007;-66
2021/03/08 05:35:55;;;;;;;4.53;1.88;;;27.70;99.90;;;;;;6313091;22;20072;-66
2021/03/08 05:38:24;;;;;;;6.22;1.85;;;27.60;99.90;;;;;;6311361;22;20014;-66
2021/03/08 05:40:57;;;;;;;6.55;1.70;;;27.60;99.90;;;;;;6311697;22;20007;-66
2021/03/08 05:43:28;;;;;;;8.45;1.90;;;27.50;99.90;;;;;;6311245;22;20333;-66
2021/03/08 05:46:20;;;;;;;5.55;1.35;;;27.40;99.90;;;;;;6338220;22;20008;-66
2021/03/08 05:48:58;;;;;;;3.78;1.33;;;27.40;99.90;;;;;;6310580;22;20098;-65
2021/03/08 05:51:31;;;;;;;6.15;1.70;;;27.20;99.90;;;;;;6336057;22;20010;-65
2021/03/08 05:54:07;;;;;;;5.70;1.58;;;27.20;99.90;;;;;;6335188;22;20102;-66
2021/03/08 05:56:57;;;;;;;10.18;2.13;;;27.10;99.90;;;;;;6310841;22;20006;-66
2021/03/08 05:59:43;;;;;;;7.80;2.22;;;27.00;99.90;;;;;;6311167;22;20108;-66
2021/03/08 06:02:44;;;;;;;8.65;1.73;;;26.80;99.90;;;;;;6311246;22;19995;-66
2021/03/08 06:05:23;;;;;;;6.35;1.67;;;26.70;99.90;;;;;;6311179;22;20007;-65
2021/03/08 06:08:11;;;;;;;10.80;2.25;;;26.60;99.90;;;;;;6312723;22;20003;-65
2021/03/08 06:11:02;;;;;;;6.82;1.73;;;26.50;99.90;;;;;;6314241;22;20010;-64
2021/03/08 06:13:53;;;;;;;9.18;1.65;;;25.40;99.90;;;;;;6312513;22;20056;-64
2021/03/08 06:16:36;;;;;;;6.95;1.23;;;24.30;99.90;;;;;;6316564;22;20011;-64
2021/03/08 06:19:06;;;;;;;7.20;2.45;;;24.00;99.90;;;;;;6352041;22;19999;-64
2021/03/08 06:21:35;;;;;;;7.50;1.63;;;23.90;99.90;;;;;;6325487;22;19995;-65
2021/03/08 06:24:07;;;;;;;5.75;0.98;;;23.80;99.90;;;;;;6319109;22;19999;-65
2021/03/08 06:26:39;;;;;;;7.03;1.52;;;23.70;99.90;;;;;;6312060;22;20003;-65
2021/03/08 06:29:08;;;;;;;6.93;1.33;;;23.60;99.90;;;;;;6311336;22;20004;-66
2021/03/08 06:31:37;;;;;;;4.55;1.30;;;23.30;99.90;;;;;;6316148;22;20000;-66
2021/03/08 06:34:04;;;;;;;4.60;1.23;;;23.30;99.90;;;;;;6313658;22;20011;-65
2021/03/08 06:36:34;;;;;;;5.00;1.25;;;23.20;99.90;;;;;;6316115;22;19999;-66
2021/03/08 06:39:02;;;;;;;7.70;1.13;;;23.10;99.90;;;;;;6312767;22;20474;-66
2021/03/08 06:41:32;;;;;;;5.72;1.58;;;23.00;99.90;;;;;;6313709;22;20003;-66
2021/03/08 06:44:02;;;;;;;3.28;0.80;;;23.00;99.90;;;;;;6310772;22;20010;-66
2021/03/08 06:46:30;;;;;;;4.10;0.90;;;22.90;99.90;;;;;;6310374;22;20398;-66
2021/03/08 06:49:00;;;;;;;3.25;0.98;;;22.90;99.90;;;;;;6308736;22;20375;-66
2021/03/08 06:51:28;;;;;;;4.43;1.15;;;23.00;99.90;;;;;;6309884;22;20424;-65
2021/03/08 06:53:55;;;;;;;12.35;1.45;;;23.00;99.90;;;;;;6309374;22;20051;-66
2021/03/08 06:56:27;;;;;;;6.97;0.90;;;23.00;99.90;;;;;;6334462;22;19999;-66
2021/03/08 06:59:14;;;;;;;5.82;1.10;;;23.10;99.90;;;;;;6310544;22;19999;-66
2021/03/08 07:01:42;;;;;;;3.20;0.73;;;23.30;99.90;;;;;;6311856;22;20002;-66
2021/03/08 07:04:14;;;;;;;4.72;1.35;;;23.30;99.90;;;;;;6309313;22;20010;-66
2021/03/08 07:06:41;;;;;;;5.32;1.40;;;23.30;99.90;;;;;;6310695;22;20004;-66
2021/03/08 07:09:11;;;;;;;2.72;0.90;;;23.30;99.90;;;;;;6310205;22;20010;-66
2021/03/08 07:11:39;;;;;;;3.85;0.80;;;23.30;99.90;;;;;;6310091;22;20086;-66
2021/03/08 07:14:22;;;;;;;1.80;0.82;;;23.40;99.90;;;;;;6309508;22;20010;-66
2021/03/08 07:16:49;;;;;;;5.55;1.70;;;23.40;99.90;;;;;;6309651;22;20003;-66
2021/03/08 07:19:17;;;;;;;2.83;0.90;;;23.40;99.90;;;;;;6308650;22;20060;-66
2021/03/08 07:21:51;;;;;;;3.47;0.80;;;23.40;99.90;;;;;;6307327;22;19999;-67
2021/03/08 07:24:19;;;;;;;2.95;0.77;;;23.50;99.90;;;;;;6307416;22;20007;-67
2021/03/08 07:26:54;;;;;;;7.10;1.33;;;23.50;99.90;;;;;;6307759;22;20003;-67
2021/03/08 07:29:25;;;;;;;5.50;0.90;;;23.50;99.90;;;;;;6308812;22;20007;-66
2021/03/08 07:31:56;;;;;;;2.92;1.35;;;23.60;99.90;;;;;;6309437;22;20336;-66
2021/03/08 07:34:23;;;;;;;6.63;2.10;;;23.60;99.90;;;;;;6309737;22;20295;-66
2021/03/08 07:37:02;;;;;;;6.13;1.27;;;23.70;99.90;;;;;;6308242;22;20130;-67
2021/03/08 07:39:29;;;;;;;3.53;1.52;;;23.80;99.90;;;;;;6308124;22;20011;-66
2021/03/08 07:42:09;;;;;;;6.93;1.67;;;23.80;99.90;;;;;;6309323;22;20003;-66
2021/03/08 07:44:49;;;;;;;6.15;2.75;;;23.80;99.90;;;;;;6307671;22;20010;-66
2021/03/08 07:47:18;;;;;;;5.43;1.80;;;23.80;99.90;;;;;;6333231;22;20339;-66
2021/03/08 07:49:46;;;;;;;7.03;2.22;;;23.90;99.90;;;;;;6305835;22;20260;-67
2021/03/08 07:52:17;;;;;;;7.10;2.22;;;23.90;99.90;;;;;;6307298;22;20011;-66
2021/03/08 07:55:02;;;;;;;6.35;1.45;;;24.00;99.90;;;;;;6307808;22;19996;-67
2021/03/08 07:57:31;;;;;;;4.45;1.20;;;24.00;99.90;;;;;;6309221;22;20099;-66
2021/03/08 07:59:58;;;;;;;10.05;2.03;;;24.00;99.90;;;;;;6313112;22;20042;-67
2021/03/08 08:02:26;;;;;;;4.50;1.75;;;24.00;99.90;;;;;;6310826;22;20003;-67
2021/03/08 08:04:53;;;;;;;7.28;1.60;;;24.00;99.90;;;;;;6309815;22;19999;-67
2021/03/08 08:07:22;;;;;;;6.30;1.27;;;24.10;99.90;;;;;;6309877;22;20003;-68
2021/03/08 08:09:50;;;;;;;4.93;1.77;;;24.00;99.90;;;;;;6310425;22;20007;-67
2021/03/08 08:12:30;;;;;;;4.68;1.50;;;24.10;99.90;;;;;;6333099;22;20007;-66
2021/03/08 08:15:01;;;;;;;6.28;1.60;;;24.10;99.90;;;;;;6309566;22;20022;-67
2021/03/08 08:17:33;;;;;;;5.60;1.75;;;24.20;99.90;;;;;;6308455;22;20060;-66
2021/03/08 08:20:06;;;;;;;5.47;1.50;;;24.20;99.90;;;;;;6308734;22;20182;-66
2021/03/08 08:22:35;;;;;;;3.53;1.63;;;24.20;99.90;;;;;;6307580;22;20002;-67
2021/03/08 08:25:04;;;;;;;3.25;1.55;;;24.30;99.90;;;;;;6306765;22;20340;-67
2021/03/08 08:27:33;;;;;;;3.50;1.50;;;24.40;99.90;;;;;;6307790;22;20003;-67
2021/03/08 08:30:03;;;;;;;8.10;2.20;;;24.40;99.90;;;;;;6308900;22;20423;-67
2021/03/08 08:32:48;;;;;;;8.35;1.65;;;24.40;99.90;;;;;;6307906;22;20010;-67
2021/03/08 08:35:30;;;;;;;6.32;1.30;;;24.40;99.90;;;;;;6308972;22;20049;-65
2021/03/08 08:38:15;;;;;;;5.32;1.65;;;24.30;99.90;;;;;;6311236;22;20078;-66
2021/03/08 08:40:45;;;;;;;4.55;0.80;;;24.30;99.90;;;;;;6311562;22;20023;-66
2021/03/08 08:43:18;;;;;;;4.80;0.95;;;24.20;99.90;;;;;;6309884;22;19999;-65
2021/03/08 08:45:47;;;;;;;5.15;1.33;;;24.20;99.90;;;;;;6308539;22;20002;-65
2021/03/08 08:48:14;;;;;;;5.47;1.20;;;24.20;99.90;;;;;;6310168;22;20084;-65
2021/03/08 08:50:47;;;;;;;5.10;1.13;;;24.20;99.90;;;;;;6307042;22;20031;-66
2021/03/08 08:53:41;;;;;;;4.55;1.30;;;24.20;99.90;;;;;;6307459;22;20014;-66
2021/03/08 08:56:10;;;;;;;3.78;1.05;;;24.10;99.90;;;;;;6310034;22;20026;-66
2021/03/08 08:58:50;;;;;;;2.60;1.08;;;24.10;99.90;;;;;;6309090;22;20000;-66
2021/03/08 09:01:25;;;;;;;5.47;0.95;;;24.10;99.90;;;;;;6308641;22;20023;-66
2021/03/08 09:04:08;;;;;;;1.70;0.77;;;24.00;99.90;;;;;;6310802;22;20005;-66
2021/03/08 09:06:51;;;;;;;6.95;1.10;;;24.00;99.90;;;;;;6310646;22;19999;-66
2021/03/08 09:09:21;;;;;;;5.15;1.00;;;23.90;99.90;;;;;;6308631;22;20045;-66
2021/03/08 09:11:51;;;;;;;2.90;1.13;;;23.90;99.90;;;;;;6332788;22;20006;-66
2021/03/08 09:14:24;;;;;;;3.15;1.00;;;23.80;99.90;;;;;;6307010;22;20003;-66
2021/03/08 09:17:21;;;;;;;4.20;1.37;;;23.80;99.90;;;;;;6308648;22;20003;-66
2021/03/08 09:20:14;;;;;;;2.35;1.17;;;23.70;99.90;;;;;;6310143;22;19999;-65
2021/03/08 09:22:52;;;;;;;3.90;1.05;;;23.70;99.90;;;;;;6331747;22;20023;-66
2021/03/08 09:25:27;;;;;;;4.38;1.10;;;23.70;99.90;;;;;;6332464;22;20034;-66
2021/03/08 09:28:11;;;;;;;3.42;1.13;;;23.60;99.90;;;;;;6308845;22;20053;-66
2021/03/08 09:30:48;;;;;;;5.10;1.40;;;23.60;99.90;;;;;;6309140;22;20003;-66
2021/03/08 09:33:20;;;;;;;2.60;0.85;;;23.50;99.90;;;;;;6309135;22;20000;-66
2021/03/08 09:35:52;;;;;;;2.25;1.13;;;23.50;99.90;;;;;;6335781;22;20261;-66
2021/03/08 09:38:21;;;;;;;3.65;1.10;;;23.50;99.90;;;;;;6312987;22;20380;-66
2021/03/08 09:40:54;;;;;;;4.50;1.10;;;23.40;99.90;;;;;;6312135;22;20048;-66
2021/03/08 09:43:34;;;;;;;6.35;1.55;;;23.40;99.90;;;;;;6309363;22;20000;-66
2021/03/08 09:46:10;;;;;;;7.68;1.17;;;23.30;99.90;;;;;;6307647;22;20004;-66
2021/03/08 09:48:42;;;;;;;5.60;1.63;;;23.30;99.90;;;;;;6308712;22;20088;-65
2021/03/08 09:51:14;;;;;;;3.90;1.10;;;23.20;99.90;;;;;;6308878;22;20003;-66
2021/03/08 09:53:50;;;;;;;4.38;1.23;;;23.30;99.90;;;;;;6333563;22;20034;-66
2021/03/08 09:56:20;;;;;;;3.40;1.02;;;23.20;99.90;;;;;;6309077;22;19995;-66
2021/03/08 09:58:58;;;;;;;3.88;1.13;;;23.20;99.90;;;;;;6308378;22;19999;-67
2021/03/08 10:01:25;;;;;;;4.13;1.27;;;23.20;99.90;;;;;;6308392;22;19999;-67
2021/03/08 10:03:52;;;;;;;5.07;1.67;;;23.10;99.90;;;;;;6308824;22;20037;-66
2021/03/08 10:06:24;;;;;;;3.03;1.38;;;23.00;99.90;;;;;;6309366;22;20074;-66
2021/03/08 10:08:51;;;;;;;5.78;1.45;;;23.00;99.90;;;;;;6310123;22;20006;-66
2021/03/08 10:11:32;;;;;;;6.20;1.30;;;22.90;99.90;;;;;;6338798;22;20038;-66
2021/03/08 10:13:59;;;;;;;5.68;1.60;;;22.80;99.90;;;;;;6315512;22;20006;-65
2021/03/08 10:16:30;;;;;;;5.32;1.50;;;22.80;99.90;;;;;;6314844;22;20437;-66
2021/03/08 10:19:08;;;;;;;4.75;1.48;;;22.80;99.90;;;;;;6311590;22;20000;-66
2021/03/08 10:21:42;;;;;;;2.92;1.30;;;22.80;99.90;;;;;;6312949;22;20029;-66
2021/03/08 10:24:10;;;;;;;4.50;1.30;;;22.80;99.90;;;;;;6309981;22;20078;-66
2021/03/08 10:26:45;;;;;;;5.70;1.20;;;22.80;99.90;;;;;;6309099;22;20007;-66
2021/03/08 10:29:15;;;;;;;5.65;1.27;;;22.80;99.90;;;;;;6309146;22;20000;-66
2021/03/08 10:31:44;;;;;;;3.00;1.40;;;22.80;99.90;;;;;;6309346;22;19995;-66
2021/03/08 10:34:13;;;;;;;3.42;1.77;;;22.80;99.90;;;;;;6309505;22;20007;-66
2021/03/08 10:36:42;;;;;;;3.70;1.10;;;22.80;99.90;;;;;;6309614;22;20049;-67
2021/03/08 10:39:13;;;;;;;5.82;1.92;;;22.80;99.90;;;;;;6308815;22;20074;-66
2021/03/08 10:41:44;;;;;;;4.80;1.35;;;22.80;99.90;;;;;;6308627;22;20078;-66
2021/03/08 10:44:19;;;;;;;5.88;1.23;;;22.70;99.90;;;;;;6306002;22;20010;-67
2021/03/08 10:46:47;;;;;;;5.32;1.40;;;22.70;99.90;;;;;;6307444;22;20011;-66
2021/03/08 10:49:14;;;;;;;2.92;1.33;;;22.80;99.90;;;;;;6306726;22;20275;-66
2021/03/08 10:51:42;;;;;;;4.97;1.35;;;22.80;99.90;;;;;;6307507;22;19995;-67
2021/03/08 10:54:12;;;;;;;6.30;1.20;;;22.80;99.90;;;;;;6330400;22;19999;-67
2021/03/08 10:56:41;;;;;;;6.30;1.42;;;22.80;99.90;;;;;;6307411;22;20003;-67
2021/03/08 10:59:31;;;;;;;5.30;1.27;;;22.90;99.90;;;;;;6307224;22;20000;-66
2021/03/08 11:02:02;;;;;;;3.10;1.08;;;22.90;99.90;;;;;;6306669;22;20056;-66
2021/03/08 11:04:30;;;;;;;4.63;1.17;;;22.90;99.90;;;;;;6331938;22;20007;-66
2021/03/08 11:06:58;;;;;;;7.35;1.58;;;22.90;99.90;;;;;;6307984;22;20132;-66
2021/03/08 11:09:27;;;;;;;4.57;1.20;;;22.80;99.90;;;;;;6307439;22;20295;-66
2021/03/08 11:11:55;;;;;;;4.30;1.52;;;22.90;99.90;;;;;;6309104;22;20010;-66
2021/03/08 11:14:23;;;;;;;3.17;1.02;;;22.90;99.90;;;;;;6309425;22;20003;-67
2021/03/08 11:16:59;;;;;;;3.42;1.40;;;22.90;99.90;;;;;;6309384;22;19995;-66
2021/03/08 11:19:28;;;;;;;2.50;1.27;;;22.90;99.90;;;;;;6309164;22;20049;-66
2021/03/08 11:22:12;;;;;;;3.00;1.27;;;22.80;99.90;;;;;;6309388;22;20003;-66
2021/03/08 11:24:47;;;;;;;4.22;1.35;;;22.80;99.90;;;;;;6307944;22;20007;-66
2021/03/08 11:27:23;;;;;;;3.80;1.48;;;22.90;99.90;;;;;;6308872;22;20424;-66
2021/03/08 11:30:06;;;;;;;4.95;1.13;;;22.80;99.90;;;;;;6306662;22;20417;-66
2021/03/08 11:32:35;;;;;;;3.00;1.27;;;22.90;99.90;;;;;;6307663;22;20003;-66
2021/03/08 11:35:03;;;;;;;5.00;1.35;;;22.90;99.90;;;;;;6308475;22;19995;-66
2021/03/08 11:37:31;;;;;;;5.63;1.55;;;22.90;99.90;;;;;;6309082;22;20441;-66
2021/03/08 11:40:04;;;;;;;4.10;1.23;;;22.80;99.90;;;;;;6308272;22;20005;-66
2021/03/08 11:42:31;;;;;;;3.25;1.20;;;22.90;99.90;;;;;;6307921;22;20015;-66
2021/03/08 11:44:59;;;;;;;2.50;1.00;;;22.90;99.90;;;;;;6307798;22;19999;-66
2021/03/08 11:47:26;;;;;;;3.58;0.95;;;22.90;99.90;;;;;;6308347;22;20322;-66
2021/03/08 11:49:57;;;;;;;5.43;1.45;;;22.90;99.90;;;;;;6308871;22;20102;-67
2021/03/08 11:52:25;;;;;;;3.03;1.40;;;22.90;99.90;;;;;;6307361;22;20007;-66
2021/03/08 11:54:52;;;;;;;2.13;0.90;;;22.80;99.90;;;;;;6307249;22;20257;-66
2021/03/08 11:57:19;;;;;;;3.42;0.88;;;22.90;99.90;;;;;;6307224;22;20414;-66
2021/03/08 11:59:47;;;;;;;2.53;0.90;;;22.90;99.90;;;;;;6308497;22;20000;-66
2021/03/08 12:02:14;;;;;;;4.68;1.45;;;22.90;99.90;;;;;;6308423;22;20451;-66
2021/03/08 12:04:41;;;;;;;5.22;1.23;;;22.80;99.90;;;;;;6307995;22;20329;-67
2021/03/08 12:07:08;;;;;;;2.67;1.40;;;22.80;99.90;;;;;;6307532;22;20007;-67
2021/03/08 12:09:36;;;;;;;3.55;1.17;;;22.80;99.90;;;;;;6307607;22;20014;-67
2021/03/08 12:12:03;;;;;;;4.13;1.40;;;22.70;99.90;;;;;;6307071;22;20003;-66
2021/03/08 12:14:30;;;;;;;2.67;1.00;;;22.60;99.90;;;;;;6331737;22;20003;-67
2021/03/08 12:17:00;;;;;;;3.97;1.20;;;22.50;99.90;;;;;;6308617;22;19995;-67
2021/03/08 12:19:28;;;;;;;5.22;1.17;;;22.50;99.90;;;;;;6308948;22;19995;-66
2021/03/08 12:21:55;;;;;;;3.42;1.25;;;22.40;99.90;;;;;;6308820;22;20027;-66
2021/03/08 12:24:23;;;;;;;2.83;1.10;;;22.50;99.90;;;;;;6308618;22;20003;-67
2021/03/08 12:26:50;;;;;;;3.15;1.23;;;22.50;99.90;;;;;;6305831;22;20097;-66
2021/03/08 12:29:17;;;;;;;3.75;1.25;;;22.50;99.90;;;;;;6307646;22;20007;-66
2021/03/08 12:31:45;;;;;;;2.83;1.17;;;22.50;99.90;;;;;;6308327;22;20003;-66
2021/03/08 12:34:12;;;;;;;4.88;1.58;;;22.50;99.90;;;;;;6308299;22;20029;-66
2021/03/08 12:36:40;;;;;;;4.10;1.00;;;22.40;99.90;;;;;;6308386;22;20003;-67
2021/03/08 12:39:07;;;;;;;2.50;0.80;;;22.30;99.90;;;;;;6307774;22;20077;-67
2021/03/08 12:41:34;;;;;;;3.97;0.93;;;22.30;99.90;;;;;;6308447;22;20000;-67
2021/03/08 12:44:02;;;;;;;5.72;1.33;;;22.10;99.90;;;;;;6307730;22;19999;-67
2021/03/08 12:46:29;;;;;;;4.53;1.30;;;22.10;99.90;;;;;;6308317;22;20022;-66
2021/03/08 12:48:59;;;;;;;2.60;1.00;;;22.10;99.90;;;;;;6308502;22;20037;-66
2021/03/08 12:51:26;;;;;;;3.53;1.10;;;22.10;99.90;;;;;;6307564;22;20006;-66
2021/03/08 12:53:54;;;;;;;3.83;1.08;;;22.10;99.90;;;;;;6308477;22;20067;-66
2021/03/08 12:56:21;;;;;;;5.68;1.45;;;22.10;99.90;;;;;;6307940;22;20014;-66
2021/03/08 12:58:48;;;;;;;3.17;0.90;;;22.20;99.90;;;;;;6306733;22;20048;-67
2021/03/08 13:01:16;;;;;;;3.72;1.02;;;22.20;99.90;;;;;;6308485;22;20391;-66
2021/03/08 13:03:43;;;;;;;3.17;0.90;;;22.30;99.90;;;;;;6308834;22;20017;-66
2021/03/08 13:06:11;;;;;;;3.25;0.85;;;22.20;99.90;;;;;;6333322;22;20027;-66